Time,TemperatureF,DewpointF,PressureIn,WindDirection,WindDirectionDegrees,WindSpeedMPH,WindSpeedGustMPH,Humidity,HourlyPrecipIn,Conditions,Clouds,dailyrainin,SolarRadiationWatts/m^2,SoftwareType,DateUTC
2013-03-25 00:04:00,15.2,12.0,30.45,NNW,343,11.0,13.0,87,0.00,,OVC031,0.00,0.00,VWS V14.00,2013-03-25 05:04:00,
2013-03-25 00:09:00,15.0,11.8,30.45,NNW,340,9.0,15.0,87,0.00,,OVC031,0.00,0.00,VWS V14.00,2013-03-25 05:09:00,
2013-03-25 00:14:00,14.8,11.6,30.45,NNW,333,9.0,15.0,87,0.00,,OVC031,0.00,0.00,VWS V14.00,2013-03-25 05:14:00,
2013-03-25 00:19:00,14.8,11.9,30.45,NNW,338,8.0,15.0,88,0.00,,OVC031,0.00,0.00,VWS V14.00,2013-03-25 05:19:00,
2013-03-25 00:25:00,14.8,11.9,30.45,NW,319,7.0,15.0,88,0.00,,OVC031,0.00,0.00,VWS V14.00,2013-03-25 05:25:00,
2013-03-25 00:30:00,14.7,11.8,30.46,NW,320,5.0,9.0,88,0.00,,OVC031,0.00,0.00,VWS V14.00,2013-03-25 05:30:00,
2013-03-25 00:35:00,14.3,11.1,30.46,NNW,327,8.0,11.0,87,0.00,,OVC031,0.00,0.00,VWS V14.00,2013-03-25 05:35:00,
2013-03-25 00:40:00,13.8,10.6,30.46,NNW,332,7.0,11.0,87,0.00,,OVC031,0.00,0.00,VWS V14.00,2013-03-25 05:40:00,
2013-03-25 00:45:00,13.2,10.1,30.46,NNW,339,8.0,11.0,87,0.00,,,0.00,0.00,VWS V14.00,2013-03-25 05:45:00,
2013-03-25 00:50:00,12.8,9.7,30.46,NNW,331,9.0,11.0,87,0.00,,,0.00,0.00,VWS V14.00,2013-03-25 05:50:00,
2013-03-25 00:55:00,12.4,9.3,30.47,NNW,335,6.0,11.0,87,0.00,,,0.00,0.00,VWS V14.00,2013-03-25 05:55:00,
2013-03-25 01:00:00,12.3,9.4,30.47,NNW,334,6.0,7.0,88,0.00,,,0.00,0.00,VWS V14.00,2013-03-25 06:00:00,
2013-03-25 01:05:00,12.1,9.2,30.47,NNW,334,6.0,9.0,88,0.00,,,0.00,0.00,VWS V14.00,2013-03-25 06:05:00,
2013-03-25 01:10:00,12.1,9.2,30.47,NNW,333,7.0,9.0,88,0.00,,,0.00,0.00,VWS V14.00,2013-03-25 06:10:00,
2013-03-25 01:15:00,12.2,9.3,30.47,NNW,333,6.0,9.0,88,0.00,,,0.00,0.00,VWS V14.00,2013-03-25 06:15:00,
2013-03-25 01:20:00,12.2,9.1,30.48,North,360,6.0,9.0,87,0.00,,,0.00,0.00,VWS V14.00,2013-03-25 06:20:00,
2013-03-25 01:25:00,12.2,9.1,30.48,NW,323,12.0,13.0,87,0.00,,,0.00,0.00,VWS V14.00,2013-03-25 06:25:00,
2013-03-25 01:30:00,12.4,9.3,30.48,NNW,329,8.0,10.0,87,0.00,,,0.00,0.00,VWS V14.00,2013-03-25 06:30:00,
2013-03-25 01:36:00,12.2,8.8,30.48,NNW,331,7.0,10.0,86,0.00,,,0.00,0.00,VWS V14.00,2013-03-25 06:36:00,
2013-03-25 01:41:00,12.0,8.6,30.48,NNW,335,9.0,10.0,86,0.00,,OVC042,0.00,0.00,VWS V14.00,2013-03-25 06:41:00,
2013-03-25 01:46:00,12.0,8.6,30.48,NNW,338,7.0,12.0,86,0.00,,OVC042,0.00,0.00,VWS V14.00,2013-03-25 06:46:00,
2013-03-25 01:52:00,11.7,8.3,30.48,NNW,333,7.0,12.0,86,0.00,,OVC042,0.00,0.00,VWS V14.00,2013-03-25 06:52:00,
2013-03-25 01:57:00,11.7,8.6,30.48,NNW,331,8.0,12.0,87,0.00,,OVC042,0.00,0.00,VWS V14.00,2013-03-25 06:57:00,
2013-03-25 02:02:00,11.7,8.3,30.48,NNW,329,5.0,10.0,86,0.00,,OVC042,0.00,0.00,VWS V14.00,2013-03-25 07:02:00,
2013-03-25 02:08:00,11.6,8.2,30.48,NNW,328,4.0,10.0,86,0.00,,OVC042,0.00,0.00,VWS V14.00,2013-03-25 07:08:00,
2013-03-25 02:14:00,11.3,7.9,30.48,NW,322,7.0,10.0,86,0.00,,OVC042,0.00,0.00,VWS V14.00,2013-03-25 07:14:00,
2013-03-25 02:19:00,11.0,7.6,30.48,NW,318,5.0,10.0,86,0.00,,OVC042,0.00,0.00,VWS V14.00,2013-03-25 07:19:00,
2013-03-25 02:24:00,10.7,7.3,30.49,NW,310,6.0,10.0,86,0.00,,OVC042,0.00,0.00,VWS V14.00,2013-03-25 07:24:00,
2013-03-25 02:29:00,10.6,7.2,30.48,NW,309,6.0,7.0,86,0.00,,OVC042,0.00,0.00,VWS V14.00,2013-03-25 07:29:00,
2013-03-25 02:34:00,10.6,7.5,30.49,NW,311,8.0,9.0,87,0.00,,OVC043,0.00,0.00,VWS V14.00,2013-03-25 07:34:00,
2013-03-25 02:39:00,10.7,7.6,30.48,NW,312,7.0,9.0,87,0.00,,OVC043,0.00,0.00,VWS V14.00,2013-03-25 07:39:00,
2013-03-25 02:44:00,10.7,7.6,30.48,NW,314,8.0,9.0,87,0.00,,OVC043,0.00,0.00,VWS V14.00,2013-03-25 07:44:00,
2013-03-25 02:49:00,10.7,7.6,30.49,NW,315,8.0,11.0,87,0.00,,OVC043,0.00,0.00,VWS V14.00,2013-03-25 07:49:00,
2013-03-25 02:54:00,10.6,7.5,30.49,NW,317,9.0,11.0,87,0.00,,OVC043,0.00,0.00,VWS V14.00,2013-03-25 07:54:00,
2013-03-25 02:59:00,10.5,7.4,30.49,NW,320,8.0,8.0,87,0.00,,OVC043,0.00,0.00,VWS V14.00,2013-03-25 07:59:00,
2013-03-25 03:05:00,10.5,7.7,30.48,NW,318,6.0,10.0,88,0.00,,OVC043,0.00,0.00,VWS V14.00,2013-03-25 08:05:00,
2013-03-25 03:10:00,10.5,7.7,30.48,NW,314,7.0,11.0,88,0.00,,OVC043,0.00,0.00,VWS V14.00,2013-03-25 08:10:00,
2013-03-25 03:15:00,10.5,7.7,30.49,NW,312,7.0,11.0,88,0.00,,OVC043,0.00,0.00,VWS V14.00,2013-03-25 08:15:00,
2013-03-25 03:20:00,10.5,7.7,30.49,NW,312,8.0,11.0,88,0.00,,OVC043,0.00,0.00,VWS V14.00,2013-03-25 08:20:00,
2013-03-25 03:25:00,10.4,7.6,30.48,NW,313,6.0,11.0,88,0.00,,OVC043,0.00,0.00,VWS V14.00,2013-03-25 08:25:00,
2013-03-25 03:30:00,10.3,7.5,30.48,NW,313,4.0,8.0,88,0.00,,OVC043,0.00,0.00,VWS V14.00,2013-03-25 08:30:00,
2013-03-25 03:35:00,10.1,7.3,30.48,NW,307,5.0,8.0,88,0.00,,OVC043,0.00,0.00,VWS V14.00,2013-03-25 08:35:00,
2013-03-25 03:40:00,9.9,7.1,30.48,WNW,302,6.0,8.0,88,0.00,,OVC043,0.00,0.00,VWS V14.00,2013-03-25 08:40:00,
2013-03-25 03:45:00,9.7,6.9,30.48,WNW,300,5.0,10.0,88,0.00,,OVC043,0.00,0.00,VWS V14.00,2013-03-25 08:45:00,
2013-03-25 03:50:00,9.4,6.6,30.48,WNW,299,8.0,10.0,88,0.00,,OVC043,0.00,0.00,VWS V14.00,2013-03-25 08:50:00,
2013-03-25 03:55:00,9.1,6.3,30.48,NW,306,7.0,10.0,88,0.00,,OVC043,0.00,0.00,VWS V14.00,2013-03-25 08:55:00,
2013-03-25 04:00:00,8.9,6.1,30.48,NW,311,7.0,8.0,88,0.00,,OVC043,0.00,0.00,VWS V14.00,2013-03-25 09:00:00,
2013-03-25 04:05:00,8.4,5.6,30.48,NW,311,7.0,10.0,88,0.00,,OVC043,0.00,0.00,VWS V14.00,2013-03-25 09:05:00,
2013-03-25 04:11:00,8.1,5.3,30.48,NW,311,7.0,10.0,88,0.00,,OVC043,0.00,0.00,VWS V14.00,2013-03-25 09:11:00,
2013-03-25 04:16:00,8.1,5.5,30.48,NW,314,8.0,11.0,89,0.00,,OVC043,0.00,0.00,VWS V14.00,2013-03-25 09:16:00,
2013-03-25 04:22:00,8.0,5.4,30.48,NW,317,10.0,11.0,89,0.00,,OVC043,0.00,0.00,VWS V14.00,2013-03-25 09:22:00,
2013-03-25 04:27:00,7.6,4.8,30.48,NW,316,7.0,11.0,88,0.00,,OVC043,0.00,0.00,VWS V14.00,2013-03-25 09:27:00,
2013-03-25 04:32:00,7.3,4.5,30.48,NW,315,7.0,9.0,88,0.00,,,0.00,0.00,VWS V14.00,2013-03-25 09:32:00,
2013-03-25 04:37:00,7.0,4.4,30.48,NW,314,7.0,9.0,89,0.00,,,0.00,0.00,VWS V14.00,2013-03-25 09:37:00,
2013-03-25 04:42:00,6.6,4.1,30.48,NW,314,4.0,9.0,89,0.00,,,0.00,0.00,VWS V14.00,2013-03-25 09:42:00,
2013-03-25 04:48:00,5.9,3.1,30.47,NW,313,5.0,9.0,88,0.00,,,0.00,0.00,VWS V14.00,2013-03-25 09:48:00,
2013-03-25 04:53:00,5.6,3.1,30.48,NW,313,5.0,9.0,89,0.00,,,0.00,0.00,VWS V14.00,2013-03-25 09:53:00,
2013-03-25 04:58:00,5.4,2.9,30.47,NW,313,6.0,9.0,89,0.00,,,0.00,0.00,VWS V14.00,2013-03-25 09:58:00,
2013-03-25 05:03:00,5.6,3.1,30.47,NW,313,6.0,6.0,89,0.00,,,0.00,0.00,VWS V14.00,2013-03-25 10:03:00,
2013-03-25 05:08:00,5.5,3.0,30.48,NW,313,5.0,7.0,89,0.00,,,0.00,0.00,VWS V14.00,2013-03-25 10:08:00,
2013-03-25 05:13:00,5.4,2.9,30.48,NW,313,4.0,7.0,89,0.00,,,0.00,0.00,VWS V14.00,2013-03-25 10:13:00,
2013-03-25 05:18:00,4.9,2.4,30.48,NW,313,4.0,7.0,89,0.00,,,0.00,0.00,VWS V14.00,2013-03-25 10:18:00,
2013-03-25 05:23:00,4.5,2.0,30.48,NW,313,5.0,7.0,89,0.00,,,0.00,0.00,VWS V14.00,2013-03-25 10:23:00,
2013-03-25 05:28:00,4.2,1.7,30.48,NW,313,4.0,7.0,89,0.00,,,0.00,0.00,VWS V14.00,2013-03-25 10:28:00,
2013-03-25 05:34:00,4.0,1.5,30.48,NW,313,6.0,6.0,89,0.00,,,0.00,0.00,VWS V14.00,2013-03-25 10:34:00,
2013-03-25 05:39:00,3.8,1.3,30.48,NW,313,5.0,6.0,89,0.00,,,0.00,0.00,VWS V14.00,2013-03-25 10:39:00,
2013-03-25 05:44:00,3.6,1.1,30.48,NW,313,4.0,7.0,89,0.00,,FEW039,0.00,0.00,VWS V14.00,2013-03-25 10:44:00,
2013-03-25 05:49:00,3.5,1.0,30.48,NW,313,6.0,7.0,89,0.00,,FEW039,0.00,0.00,VWS V14.00,2013-03-25 10:49:00,
2013-03-25 05:54:00,3.5,1.0,30.48,NW,311,6.0,7.0,89,0.00,,FEW039,0.00,0.00,VWS V14.00,2013-03-25 10:54:00,
2013-03-25 06:00:00,3.4,0.9,30.48,NW,310,6.0,6.0,89,0.00,,FEW039,0.00,0.00,VWS V14.00,2013-03-25 11:00:00,
2013-03-25 06:05:00,3.5,1.0,30.48,NW,310,5.0,6.0,89,0.00,,FEW039,0.00,0.00,VWS V14.00,2013-03-25 11:05:00,
2013-03-25 06:10:00,3.4,0.9,30.48,NW,309,5.0,7.0,89,0.00,,FEW039,0.00,0.00,VWS V14.00,2013-03-25 11:10:00,
2013-03-25 06:15:00,3.4,0.9,30.48,NW,304,6.0,8.0,89,0.00,,FEW039,0.00,0.00,VWS V14.00,2013-03-25 11:15:00,
2013-03-25 06:20:00,3.6,1.1,30.49,WNW,303,6.0,8.0,89,0.00,,FEW039,0.00,0.00,VWS V14.00,2013-03-25 11:20:00,
2013-03-25 06:25:00,3.6,1.1,30.49,WNW,303,7.0,8.0,89,0.00,,FEW039,0.00,0.00,VWS V14.00,2013-03-25 11:25:00,
2013-03-25 06:30:00,3.5,1.0,30.49,WNW,303,6.0,7.0,89,0.00,,FEW039,0.00,0.00,VWS V14.00,2013-03-25 11:30:00,
2013-03-25 06:36:00,3.6,1.1,30.49,WNW,303,6.0,7.0,89,0.00,,FEW039,0.00,0.00,VWS V14.00,2013-03-25 11:36:00,
2013-03-25 06:41:00,3.5,1.0,30.49,WNW,303,5.0,7.0,89,0.00,,CLR,0.00,0.00,VWS V14.00,2013-03-25 11:41:00,
2013-03-25 06:46:00,3.6,1.1,30.49,WNW,303,5.0,7.0,89,0.00,,CLR,0.00,0.00,VWS V14.00,2013-03-25 11:46:00,
2013-03-25 06:51:00,3.5,1.0,30.49,WNW,303,6.0,7.0,89,0.00,,CLR,0.00,0.00,VWS V14.00,2013-03-25 11:51:00,
2013-03-25 06:57:00,3.3,0.8,30.49,WNW,303,5.0,7.0,89,0.00,,CLR,0.00,0.00,VWS V14.00,2013-03-25 11:57:00,
2013-03-25 07:02:00,3.1,0.6,30.49,WNW,303,5.0,6.0,89,0.00,,CLR,0.00,0.00,VWS V14.00,2013-03-25 12:02:00,
2013-03-25 07:07:00,3.1,0.6,30.50,WNW,303,4.0,6.0,89,0.00,,CLR,0.00,0.00,VWS V14.00,2013-03-25 12:07:00,
2013-03-25 07:13:00,2.8,0.3,30.50,WNW,303,4.0,6.0,89,0.00,,CLR,0.00,0.00,VWS V14.00,2013-03-25 12:13:00,
2013-03-25 07:18:00,2.8,0.3,30.50,WNW,303,4.0,6.0,89,0.00,,CLR,0.00,0.00,VWS V14.00,2013-03-25 12:18:00,
2013-03-25 07:23:00,3.0,0.5,30.50,WNW,303,3.0,6.0,89,0.00,,CLR,0.00,0.00,VWS V14.00,2013-03-25 12:23:00,
2013-03-25 07:28:00,3.2,0.7,30.50,WNW,303,3.0,6.0,89,0.00,,CLR,0.00,0.00,VWS V14.00,2013-03-25 12:28:00,
2013-03-25 07:33:00,3.2,0.7,30.50,WNW,303,3.0,5.0,89,0.00,,CLR,0.00,0.00,VWS V14.00,2013-03-25 12:33:00,
2013-03-25 07:38:00,3.1,0.4,30.51,WNW,303,2.0,5.0,88,0.00,,CLR,0.00,5.00,VWS V14.00,2013-03-25 12:38:00,
2013-03-25 07:43:00,2.7,0.0,30.51,WNW,303,3.0,5.0,88,0.00,,CLR,0.00,9.00,VWS V14.00,2013-03-25 12:43:00,
2013-03-25 07:49:00,2.5,-0.2,30.51,WNW,303,2.0,5.0,88,0.00,,CLR,0.00,12.00,VWS V14.00,2013-03-25 12:49:00,
2013-03-25 07:54:00,2.5,-0.2,30.51,WNW,303,2.0,5.0,88,0.00,,CLR,0.00,16.00,VWS V14.00,2013-03-25 12:54:00,
2013-03-25 07:59:00,2.5,-0.2,30.51,WNW,303,3.0,5.0,88,0.00,,CLR,0.00,21.00,VWS V14.00,2013-03-25 12:59:00,
2013-03-25 08:04:00,2.4,-0.3,30.51,WNW,303,3.0,5.0,88,0.00,,CLR,0.00,25.00,VWS V14.00,2013-03-25 13:04:00,
2013-03-25 08:09:00,2.6,-0.1,30.51,WNW,303,4.0,5.0,88,0.00,,CLR,0.00,28.00,VWS V14.00,2013-03-25 13:09:00,
2013-03-25 08:14:00,3.0,0.3,30.51,WNW,303,4.0,5.0,88,0.00,,CLR,0.00,33.00,VWS V14.00,2013-03-25 13:14:00,
2013-03-25 08:20:00,3.2,0.4,30.51,WNW,303,4.0,5.0,88,0.00,,CLR,0.00,37.00,VWS V14.00,2013-03-25 13:20:00,
2013-03-25 08:25:00,3.6,1.1,30.51,WNW,303,4.0,5.0,89,0.00,,CLR,0.00,40.00,VWS V14.00,2013-03-25 13:25:00,
2013-03-25 08:30:00,4.0,1.5,30.51,NW,304,5.0,6.0,89,0.00,,CLR,0.00,42.00,VWS V14.00,2013-03-25 13:30:00,
2013-03-25 08:35:00,4.3,1.5,30.51,NW,306,3.0,6.0,88,0.00,,CLR,0.00,90.00,VWS V14.00,2013-03-25 13:35:00,
2013-03-25 08:40:00,4.6,2.1,30.51,NW,311,6.0,7.0,89,0.00,,CLR,0.00,104.00,VWS V14.00,2013-03-25 13:40:00,
2013-03-25 08:45:00,4.8,2.0,30.52,NW,311,6.0,7.0,88,0.00,,CLR,0.00,118.00,VWS V14.00,2013-03-25 13:45:00,
2013-03-25 08:50:00,4.9,2.1,30.52,NW,319,5.0,8.0,88,0.00,,CLR,0.00,132.00,VWS V14.00,2013-03-25 13:50:00,
2013-03-25 08:55:00,5.3,2.5,30.52,NW,319,4.0,8.0,88,0.00,,CLR,0.00,153.00,VWS V14.00,2013-03-25 13:55:00,
2013-03-25 09:00:00,5.4,2.6,30.52,NW,319,4.0,5.0,88,0.00,,CLR,0.00,163.00,VWS V14.00,2013-03-25 14:00:00,
2013-03-25 09:06:00,5.9,3.1,30.52,NW,319,4.0,5.0,88,0.00,,CLR,0.00,188.00,VWS V14.00,2013-03-25 14:06:00,
2013-03-25 09:11:00,6.5,3.7,30.52,NW,323,5.0,7.0,88,0.00,,CLR,0.00,200.00,VWS V14.00,2013-03-25 14:11:00,
2013-03-25 09:16:00,7.0,4.2,30.52,NW,323,5.0,7.0,88,0.00,,CLR,0.00,216.00,VWS V14.00,2013-03-25 14:16:00,
2013-03-25 09:21:00,7.3,4.5,30.52,NNW,327,6.0,8.0,88,0.00,,CLR,0.00,234.00,VWS V14.00,2013-03-25 14:21:00,
2013-03-25 09:26:00,7.5,4.7,30.52,NNW,332,8.0,10.0,88,0.00,,CLR,0.00,251.00,VWS V14.00,2013-03-25 14:26:00,
2013-03-25 09:32:00,8.0,5.2,30.52,NNW,336,10.0,13.0,88,0.00,,CLR,0.00,271.00,VWS V14.00,2013-03-25 14:32:00,
2013-03-25 09:37:00,8.1,5.3,30.52,NNW,336,11.0,13.0,88,0.00,,CLR,0.00,285.00,VWS V14.00,2013-03-25 14:37:00,
2013-03-25 09:42:00,8.1,5.3,30.52,NNW,329,9.0,13.0,88,0.00,,CLR,0.00,301.00,VWS V14.00,2013-03-25 14:42:00,
2013-03-25 09:47:00,8.3,5.5,30.52,NNW,327,8.0,13.0,88,0.00,,CLR,0.00,315.00,VWS V14.00,2013-03-25 14:47:00,
2013-03-25 09:52:00,8.6,5.8,30.52,NNW,329,10.0,13.0,88,0.00,,CLR,0.00,330.00,VWS V14.00,2013-03-25 14:52:00,
2013-03-25 09:57:00,8.9,6.1,30.52,NNW,331,9.0,13.0,88,0.00,,CLR,0.00,346.00,VWS V14.00,2013-03-25 14:57:00,
2013-03-25 10:02:00,9.1,6.3,30.53,NNW,333,9.0,10.0,88,0.00,,CLR,0.00,360.00,VWS V14.00,2013-03-25 15:02:00,
2013-03-25 10:08:00,9.3,6.5,30.53,NNW,337,7.0,10.0,88,0.00,,CLR,0.00,378.00,VWS V14.00,2013-03-25 15:08:00,
2013-03-25 10:13:00,9.7,6.9,30.53,NNW,336,6.0,10.0,88,0.00,,CLR,0.00,396.00,VWS V14.00,2013-03-25 15:13:00,
2013-03-25 10:18:00,10.2,7.4,30.53,NNW,335,7.0,10.0,88,0.00,,CLR,0.00,411.00,VWS V14.00,2013-03-25 15:18:00,
2013-03-25 10:23:00,10.5,7.7,30.53,NNW,331,5.0,10.0,88,0.00,,CLR,0.00,427.00,VWS V14.00,2013-03-25 15:23:00,
2013-03-25 10:28:00,10.5,7.4,30.53,NW,317,7.0,10.0,87,0.00,,CLR,0.00,443.00,VWS V14.00,2013-03-25 15:28:00,
2013-03-25 10:33:00,10.9,8.1,30.53,NW,316,7.0,9.0,88,0.00,,CLR,0.00,461.00,VWS V14.00,2013-03-25 15:33:00,
2013-03-25 10:38:00,11.3,8.2,30.53,NW,316,6.0,9.0,87,0.00,,CLR,0.00,476.00,VWS V14.00,2013-03-25 15:38:00,
2013-03-25 10:43:00,11.8,8.7,30.53,NW,317,6.0,9.0,87,0.00,,CLR,0.00,492.00,VWS V14.00,2013-03-25 15:43:00,
2013-03-25 10:48:00,12.2,9.1,30.53,NW,325,7.0,9.0,87,0.00,,CLR,0.00,508.00,VWS V14.00,2013-03-25 15:48:00,
2013-03-25 10:54:00,12.4,9.3,30.53,NNW,333,7.0,10.0,87,0.00,,CLR,0.00,524.00,VWS V14.00,2013-03-25 15:54:00,
2013-03-25 10:59:00,12.7,9.6,30.53,NNW,335,6.0,10.0,87,0.00,,CLR,0.00,540.00,VWS V14.00,2013-03-25 15:59:00,
2013-03-25 11:04:00,13.2,10.1,30.53,NNW,333,7.0,10.0,87,0.00,,CLR,0.00,555.00,VWS V14.00,2013-03-25 16:04:00,
2013-03-25 11:09:00,13.5,10.1,30.53,NNW,341,9.0,11.0,86,0.00,,CLR,0.00,571.00,VWS V14.00,2013-03-25 16:09:00,
2013-03-25 11:14:00,13.7,10.3,30.53,NNW,334,7.0,11.0,86,0.00,,CLR,0.00,589.00,VWS V14.00,2013-03-25 16:14:00,
2013-03-25 11:19:00,13.9,10.2,30.53,NNW,333,7.0,12.0,85,0.00,,CLR,0.00,603.00,VWS V14.00,2013-03-25 16:19:00,
2013-03-25 11:25:00,14.3,10.6,30.53,NNW,338,8.0,12.0,85,0.00,,CLR,0.00,613.00,VWS V14.00,2013-03-25 16:25:00,
2013-03-25 11:30:00,14.7,11.0,30.53,NNW,329,11.0,11.0,85,0.00,,CLR,0.00,622.00,VWS V14.00,2013-03-25 16:30:00,
2013-03-25 11:35:00,14.8,10.9,30.53,NNW,346,8.0,14.0,84,0.00,,CLR,0.00,636.00,VWS V14.00,2013-03-25 16:35:00,
2013-03-25 11:40:00,15.1,11.1,30.54,NNW,343,11.0,14.0,84,0.00,,CLR,0.00,647.00,VWS V14.00,2013-03-25 16:40:00,
2013-03-25 11:46:00,15.3,11.3,30.53,NNW,343,9.0,14.0,84,0.00,,CLR,0.00,657.00,VWS V14.00,2013-03-25 16:46:00,
2013-03-25 11:51:00,15.5,11.5,30.53,NNW,343,10.0,14.0,84,0.00,,CLR,0.00,668.00,VWS V14.00,2013-03-25 16:51:00,
2013-03-25 11:57:00,15.8,11.6,30.53,North,350,8.0,14.0,83,0.00,,CLR,0.00,679.00,VWS V14.00,2013-03-25 16:57:00,
2013-03-25 12:02:00,16.1,11.9,30.53,NNW,342,10.0,14.0,83,0.00,,CLR,0.00,689.00,VWS V14.00,2013-03-25 17:02:00,
2013-03-25 12:07:00,16.4,12.1,30.53,NNW,348,13.0,16.0,83,0.00,,CLR,0.00,696.00,VWS V14.00,2013-03-25 17:07:00,
2013-03-25 12:12:00,16.6,12.1,30.53,NNW,346,11.0,16.0,82,0.00,,CLR,0.00,705.00,VWS V14.00,2013-03-25 17:12:00,
2013-03-25 12:17:00,16.7,12.2,30.53,NNW,340,11.0,16.0,82,0.00,,CLR,0.00,714.00,VWS V14.00,2013-03-25 17:17:00,
2013-03-25 12:22:00,17.2,12.7,30.53,NNW,344,10.0,16.0,82,0.00,,CLR,0.00,724.00,VWS V14.00,2013-03-25 17:22:00,
2013-03-25 12:27:00,17.2,12.4,30.53,NNW,346,7.0,16.0,81,0.00,,CLR,0.00,728.00,VWS V14.00,2013-03-25 17:27:00,
2013-03-25 12:32:00,17.6,13.1,30.53,North,355,13.0,13.0,82,0.00,,CLR,0.00,738.00,VWS V14.00,2013-03-25 17:32:00,
2013-03-25 12:37:00,17.9,13.4,30.53,North,10,11.0,13.0,82,0.00,,CLR,0.00,745.00,VWS V14.00,2013-03-25 17:37:00,
2013-03-25 12:42:00,18.4,13.6,30.53,NNW,347,11.0,14.0,81,0.00,,CLR,0.00,751.00,VWS V14.00,2013-03-25 17:42:00,
2013-03-25 12:48:00,18.5,13.6,30.53,NNW,337,9.0,14.0,81,0.00,,CLR,0.00,758.00,VWS V14.00,2013-03-25 17:48:00,
2013-03-25 12:53:00,18.6,13.8,30.53,NNW,338,10.0,14.0,81,0.00,,CLR,0.00,759.00,VWS V14.00,2013-03-25 17:53:00,
2013-03-25 12:58:00,18.6,13.5,30.53,North,355,10.0,14.0,80,0.00,,CLR,0.00,768.00,VWS V14.00,2013-03-25 17:58:00,
2013-03-25 13:03:00,18.9,13.8,30.53,North,355,9.0,13.0,80,0.00,,CLR,0.00,772.00,VWS V14.00,2013-03-25 18:03:00,
2013-03-25 13:08:00,19.3,14.1,30.53,NNW,336,8.0,13.0,80,0.00,,CLR,0.00,777.00,VWS V14.00,2013-03-25 18:08:00,
2013-03-25 13:13:00,19.4,14.2,30.53,NNW,348,7.0,13.0,80,0.00,,CLR,0.00,780.00,VWS V14.00,2013-03-25 18:13:00,
2013-03-25 13:19:00,19.3,13.6,30.52,North,350,10.0,13.0,78,0.00,,CLR,0.00,782.00,VWS V14.00,2013-03-25 18:19:00,
2013-03-25 13:24:00,19.6,14.2,30.52,NNW,342,10.0,13.0,79,0.00,,CLR,0.00,786.00,VWS V14.00,2013-03-25 18:24:00,
2013-03-25 13:29:00,19.8,14.6,30.52,NNW,337,10.0,13.0,80,0.00,,CLR,0.00,786.00,VWS V14.00,2013-03-25 18:29:00,
2013-03-25 13:34:00,20.1,14.9,30.52,NNW,338,6.0,11.0,80,0.00,,FEW019,0.00,782.00,VWS V14.00,2013-03-25 18:34:00,
2013-03-25 13:39:00,20.6,15.1,30.52,NNE,21,8.0,11.0,79,0.00,,FEW019,0.00,816.00,VWS V14.00,2013-03-25 18:39:00,
2013-03-25 13:44:00,21.2,15.1,30.52,North,5,6.0,12.0,77,0.00,,FEW019,0.00,814.00,VWS V14.00,2013-03-25 18:44:00,
2013-03-25 13:49:00,21.0,14.9,30.52,North,11,10.0,12.0,77,0.00,,FEW019,0.00,800.00,VWS V14.00,2013-03-25 18:49:00,
2013-03-25 13:54:00,21.6,15.8,30.52,North,5,8.0,12.0,78,0.00,,FEW019,0.00,809.00,VWS V14.00,2013-03-25 18:54:00,
2013-03-25 13:59:00,21.6,15.5,30.52,NNW,332,8.0,10.0,77,0.00,,FEW019,0.00,861.00,VWS V14.00,2013-03-25 18:59:00,
2013-03-25 14:04:00,21.4,15.3,30.52,North,360,9.0,11.0,77,0.00,,FEW019,0.00,798.00,VWS V14.00,2013-03-25 19:04:00,
2013-03-25 14:09:00,21.3,15.2,30.52,North,5,7.0,12.0,77,0.00,,FEW019,0.00,807.00,VWS V14.00,2013-03-25 19:09:00,
2013-03-25 14:14:00,21.2,15.1,30.52,North,350,9.0,13.0,77,0.00,,FEW019,0.00,849.00,VWS V14.00,2013-03-25 19:14:00,
2013-03-25 14:20:00,21.3,14.9,30.52,NNW,342,8.0,13.0,76,0.00,,FEW019,0.00,830.00,VWS V14.00,2013-03-25 19:20:00,
2013-03-25 14:25:00,21.2,14.8,30.51,North,355,11.0,13.0,76,0.00,,FEW019,0.00,784.00,VWS V14.00,2013-03-25 19:25:00,
2013-03-25 14:30:00,21.7,15.3,30.52,North,351,4.0,9.0,76,0.00,,FEW019,0.00,793.00,VWS V14.00,2013-03-25 19:30:00,
2013-03-25 14:35:00,22.0,15.6,30.51,NNW,344,9.0,11.0,76,0.00,,CLR,0.00,786.00,VWS V14.00,2013-03-25 19:35:00,
2013-03-25 14:40:00,21.9,15.5,30.51,North,5,5.0,11.0,76,0.00,,CLR,0.00,773.00,VWS V14.00,2013-03-25 19:40:00,
2013-03-25 14:45:00,22.4,15.7,30.51,NNW,347,6.0,11.0,75,0.00,,CLR,0.00,775.00,VWS V14.00,2013-03-25 19:45:00,
2013-03-25 14:52:00,22.5,16.1,30.50,North,360,6.0,11.0,76,0.00,,CLR,0.00,761.00,VWS V14.00,2013-03-25 19:52:00,
2013-03-25 14:57:00,22.4,15.7,30.51,North,355,2.0,11.0,75,0.00,,CLR,0.00,758.00,VWS V14.00,2013-03-25 19:57:00,
2013-03-25 15:02:00,22.4,15.7,30.50,North,355,7.0,9.0,75,0.00,,CLR,0.00,752.00,VWS V14.00,2013-03-25 20:02:00,
2013-03-25 15:07:00,22.5,16.4,30.50,North,360,4.0,9.0,77,0.00,,CLR,0.00,751.00,VWS V14.00,2013-03-25 20:07:00,
2013-03-25 15:12:00,23.1,16.7,30.50,North,10,4.0,9.0,76,0.00,,CLR,0.00,740.00,VWS V14.00,2013-03-25 20:12:00,
2013-03-25 15:18:00,23.9,16.8,30.50,NNE,13,6.0,9.0,74,0.00,,CLR,0.00,731.00,VWS V14.00,2013-03-25 20:18:00,
2013-03-25 15:23:00,23.6,15.9,30.50,NNE,13,6.0,9.0,72,0.00,,CLR,0.00,766.00,VWS V14.00,2013-03-25 20:23:00,
2013-03-25 15:28:00,23.5,16.5,30.50,NNW,340,5.0,10.0,74,0.00,,CLR,0.00,731.00,VWS V14.00,2013-03-25 20:28:00,
2013-03-25 15:33:00,22.8,16.1,30.50,NNW,347,7.0,10.0,75,0.00,,CLR,0.00,731.00,VWS V14.00,2013-03-25 20:33:00,
2013-03-25 15:38:00,22.8,16.4,30.50,North,355,8.0,12.0,76,0.00,,CLR,0.00,726.00,VWS V14.00,2013-03-25 20:38:00,
2013-03-25 15:43:00,23.3,16.6,30.50,North,355,5.0,12.0,75,0.00,,CLR,0.00,738.00,VWS V14.00,2013-03-25 20:43:00,
2013-03-25 15:48:00,23.5,17.1,30.50,NNW,343,6.0,12.0,76,0.00,,CLR,0.00,722.00,VWS V14.00,2013-03-25 20:48:00,
2013-03-25 15:53:00,23.3,16.6,30.50,North,355,4.0,12.0,75,0.00,,CLR,0.00,722.00,VWS V14.00,2013-03-25 20:53:00,
2013-03-25 15:58:00,22.5,16.1,30.50,NNW,344,5.0,12.0,76,0.00,,CLR,0.00,279.00,VWS V14.00,2013-03-25 20:58:00,
2013-03-25 16:03:00,22.5,16.4,30.50,NNW,347,8.0,8.0,77,0.00,,CLR,0.00,313.00,VWS V14.00,2013-03-25 21:03:00,
2013-03-25 16:08:00,23.6,17.2,30.50,North,5,3.0,10.0,76,0.00,,CLR,0.00,900.00,VWS V14.00,2013-03-25 21:08:00,
2013-03-25 16:13:00,23.8,17.0,30.50,NNW,342,7.0,12.0,75,0.00,,CLR,0.00,279.00,VWS V14.00,2013-03-25 21:13:00,
2013-03-25 16:19:00,22.9,16.2,30.50,NNW,343,5.0,12.0,75,0.00,,CLR,0.00,292.00,VWS V14.00,2013-03-25 21:19:00,
2013-03-25 16:24:00,23.5,17.4,30.49,NNE,23,6.0,12.0,77,0.00,,CLR,0.00,798.00,VWS V14.00,2013-03-25 21:24:00,
2013-03-25 16:29:00,24.9,18.1,30.49,NE,38,11.0,12.0,75,0.00,,CLR,0.00,714.00,VWS V14.00,2013-03-25 21:29:00,
2013-03-25 16:34:00,25.4,17.6,30.49,NNE,16,9.0,10.0,72,0.00,,CLR,0.00,216.00,VWS V14.00,2013-03-25 21:34:00,
2013-03-25 16:39:00,24.9,16.8,30.49,NNE,15,8.0,10.0,71,0.00,,CLR,0.00,202.00,VWS V14.00,2013-03-25 21:39:00,
2013-03-25 16:44:00,24.4,16.7,30.49,NNE,22,6.0,10.0,72,0.00,,CLR,0.00,234.00,VWS V14.00,2013-03-25 21:44:00,
2013-03-25 16:49:00,25.0,17.6,30.49,NNE,19,7.0,10.0,73,0.00,,CLR,0.00,670.00,VWS V14.00,2013-03-25 21:49:00,
2013-03-25 16:54:00,24.8,17.1,30.49,NNE,14,7.0,10.0,72,0.00,,CLR,0.00,689.00,VWS V14.00,2013-03-25 21:54:00,
2013-03-25 16:59:00,24.4,17.0,30.49,North,5,7.0,9.0,73,0.00,,CLR,0.00,211.00,VWS V14.00,2013-03-25 21:59:00,
2013-03-25 17:04:00,24.9,17.8,30.49,NNE,20,6.0,9.0,74,0.00,,CLR,0.00,536.00,VWS V14.00,2013-03-25 22:04:00,
2013-03-25 17:09:00,25.2,17.5,30.49,NNE,14,9.0,11.0,72,0.00,,CLR,0.00,519.00,VWS V14.00,2013-03-25 22:09:00,
2013-03-25 17:14:00,24.9,17.5,30.49,NNE,17,6.0,11.0,73,0.00,,CLR,0.00,499.00,VWS V14.00,2013-03-25 22:14:00,
2013-03-25 17:19:00,25.0,17.6,30.49,North,11,7.0,11.0,73,0.00,,CLR,0.00,478.00,VWS V14.00,2013-03-25 22:19:00,
2013-03-25 17:25:00,25.0,17.3,30.49,North,9,6.0,11.0,72,0.00,,CLR,0.00,459.00,VWS V14.00,2013-03-25 22:25:00,
2013-03-25 17:30:00,24.8,17.4,30.49,North,10,5.0,7.0,73,0.00,,CLR,0.00,443.00,VWS V14.00,2013-03-25 22:30:00,
2013-03-25 17:35:00,24.9,17.5,30.48,NNE,13,6.0,10.0,73,0.00,,BKN027,0.00,429.00,VWS V14.00,2013-03-25 22:35:00,
2013-03-25 17:40:00,24.9,17.5,30.49,NNE,17,6.0,11.0,73,0.00,,BKN027,0.00,406.00,VWS V14.00,2013-03-25 22:40:00,
2013-03-25 17:45:00,25.2,17.5,30.48,NNE,13,6.0,11.0,72,0.00,,BKN027,0.00,406.00,VWS V14.00,2013-03-25 22:45:00,
2013-03-25 17:50:00,25.1,17.0,30.49,NNE,17,9.0,11.0,71,0.00,,BKN027,0.00,381.00,VWS V14.00,2013-03-25 22:50:00,
2013-03-25 17:55:00,25.2,17.5,30.48,NNE,26,5.0,11.0,72,0.00,,BKN028,0.00,364.00,VWS V14.00,2013-03-25 22:55:00,
2013-03-25 18:00:00,25.0,17.6,30.48,NNE,14,8.0,8.0,73,0.00,,BKN028,0.00,345.00,VWS V14.00,2013-03-25 23:00:00,
2013-03-25 18:06:00,25.2,17.5,30.48,NNE,32,8.0,10.0,72,0.00,,BKN028,0.00,330.00,VWS V14.00,2013-03-25 23:06:00,
2013-03-25 18:11:00,25.1,17.4,30.48,NNE,33,7.0,10.0,72,0.00,,BKN028,0.00,311.00,VWS V14.00,2013-03-25 23:11:00,
2013-03-25 18:16:00,24.9,17.5,30.49,NE,34,7.0,10.0,73,0.00,,BKN028,0.00,297.00,VWS V14.00,2013-03-25 23:16:00,
2013-03-25 18:21:00,24.7,17.3,30.49,NE,36,7.0,10.0,73,0.00,,BKN028,0.00,274.00,VWS V14.00,2013-03-25 23:21:00,
2013-03-25 18:27:00,24.7,17.3,30.49,NE,40,6.0,10.0,73,0.00,,BKN028,0.00,251.00,VWS V14.00,2013-03-25 23:27:00,
2013-03-25 18:32:00,24.7,17.3,30.48,NE,41,5.0,7.0,73,0.00,,BKN028,0.00,230.00,VWS V14.00,2013-03-25 23:32:00,
2013-03-25 18:37:00,24.7,17.3,30.48,NE,39,7.0,8.0,73,0.00,,BKN028,0.00,211.00,VWS V14.00,2013-03-25 23:37:00,
2013-03-25 18:42:00,24.3,16.9,30.48,NE,42,7.0,9.0,73,0.00,,BKN026,0.00,190.00,VWS V14.00,2013-03-25 23:42:00,
2013-03-25 18:47:00,24.1,17.0,30.49,NE,44,5.0,9.0,74,0.00,,BKN026,0.00,172.00,VWS V14.00,2013-03-25 23:47:00,
2013-03-25 18:52:00,23.9,16.8,30.49,NE,44,4.0,9.0,74,0.00,,BKN026,0.00,153.00,VWS V14.00,2013-03-25 23:52:00,
2013-03-25 18:57:00,23.8,16.7,30.49,NE,44,6.0,9.0,74,0.00,,BKN026,0.00,135.00,VWS V14.00,2013-03-25 23:57:00,
2013-03-25 19:02:00,23.8,16.7,30.48,NE,44,5.0,7.0,74,0.00,,BKN026,0.00,116.00,VWS V14.00,2013-03-26 00:02:00,
2013-03-25 19:07:00,23.5,16.5,30.48,NE,44,4.0,8.0,74,0.00,,BKN026,0.00,98.00,VWS V14.00,2013-03-26 00:07:00,
2013-03-25 19:12:00,23.2,16.2,30.48,NE,44,5.0,8.0,74,0.00,,SCT026,0.00,83.00,VWS V14.00,2013-03-26 00:12:00,
2013-03-25 19:18:00,22.5,15.8,30.48,NE,50,8.0,8.0,75,0.00,,SCT026,0.00,69.00,VWS V14.00,2013-03-26 00:18:00,
2013-03-25 19:23:00,21.7,15.3,30.48,NE,53,6.0,8.0,76,0.00,,BKN026,0.00,54.00,VWS V14.00,2013-03-26 00:23:00,
2013-03-25 19:28:00,21.0,14.9,30.48,NE,53,5.0,8.0,77,0.00,,BKN026,0.00,42.00,VWS V14.00,2013-03-26 00:28:00,
2013-03-25 19:33:00,20.6,14.8,30.48,NE,53,6.0,8.0,78,0.00,,SCT026,0.00,32.00,VWS V14.00,2013-03-26 00:33:00,
2013-03-25 19:38:00,20.0,14.3,30.48,NE,53,7.0,8.0,78,0.00,,SCT026,0.00,25.00,VWS V14.00,2013-03-26 00:38:00,
2013-03-25 19:43:00,19.7,14.3,30.48,NE,53,7.0,8.0,79,0.00,,BKN026,0.00,19.00,VWS V14.00,2013-03-26 00:43:00,
2013-03-25 19:48:00,19.4,14.0,30.48,NE,53,5.0,8.0,79,0.00,,BKN026,0.00,16.00,VWS V14.00,2013-03-26 00:48:00,
2013-03-25 19:53:00,18.9,13.5,30.47,NE,53,5.0,8.0,79,0.00,,BKN026,0.00,12.00,VWS V14.00,2013-03-26 00:53:00,
2013-03-25 19:58:00,18.2,13.1,30.47,NE,53,7.0,8.0,80,0.00,,BKN026,0.00,9.00,VWS V14.00,2013-03-26 00:58:00,
2013-03-25 20:03:00,17.6,12.8,30.47,NE,53,7.0,8.0,81,0.00,,BKN026,0.00,7.00,VWS V14.00,2013-03-26 01:03:00,
2013-03-25 20:08:00,17.1,12.6,30.47,NE,53,6.0,8.0,82,0.00,,BKN026,0.00,0.00,VWS V14.00,2013-03-26 01:08:00,
2013-03-25 20:14:00,16.7,12.4,30.47,NE,53,5.0,8.0,83,0.00,,BKN026,0.00,0.00,VWS V14.00,2013-03-26 01:14:00,
2013-03-25 20:19:00,16.3,12.1,30.47,NE,53,6.0,8.0,83,0.00,,BKN026,0.00,0.00,VWS V14.00,2013-03-26 01:19:00,
2013-03-25 20:24:00,16.1,12.1,30.47,NE,53,6.0,8.0,84,0.00,,BKN026,0.00,0.00,VWS V14.00,2013-03-26 01:24:00,
2013-03-25 20:29:00,15.5,11.5,30.47,NE,54,5.0,6.0,84,0.00,,BKN026,0.00,0.00,VWS V14.00,2013-03-26 01:29:00,
2013-03-25 20:34:00,15.1,11.4,30.47,NE,55,5.0,7.0,85,0.00,,BKN026,0.00,0.00,VWS V14.00,2013-03-26 01:34:00,
2013-03-25 20:39:00,15.0,11.3,30.47,NE,56,5.0,7.0,85,0.00,,BKN026,0.00,0.00,VWS V14.00,2013-03-26 01:39:00,
2013-03-25 20:44:00,14.8,11.4,30.47,NE,56,6.0,7.0,86,0.00,,CLR,0.00,0.00,VWS V14.00,2013-03-26 01:44:00,
2013-03-25 20:50:00,14.6,11.2,30.47,ENE,57,7.0,8.0,86,0.00,,CLR,0.00,0.00,VWS V14.00,2013-03-26 01:50:00,
2013-03-25 20:55:00,14.4,11.0,30.47,ENE,57,5.0,8.0,86,0.00,,CLR,0.00,0.00,VWS V14.00,2013-03-26 01:55:00,
2013-03-25 21:00:00,14.3,11.1,30.46,ENE,57,4.0,5.0,87,0.00,,CLR,0.00,0.00,VWS V14.00,2013-03-26 02:00:00,
2013-03-25 21:05:00,14.2,11.1,30.47,ENE,57,5.0,7.0,87,0.00,,CLR,0.00,0.00,VWS V14.00,2013-03-26 02:05:00,
2013-03-25 21:10:00,14.0,10.9,30.47,ENE,57,7.0,7.0,87,0.00,,CLR,0.00,0.00,VWS V14.00,2013-03-26 02:10:00,
2013-03-25 21:15:00,13.9,10.8,30.47,ENE,57,4.0,7.0,87,0.00,,CLR,0.00,0.00,VWS V14.00,2013-03-26 02:15:00,
2013-03-25 21:20:00,13.6,10.5,30.47,ENE,71,3.0,9.0,87,0.00,,CLR,0.00,0.00,VWS V14.00,2013-03-26 02:20:00,
2013-03-25 21:25:00,13.0,9.6,30.47,ENE,71,4.0,9.0,86,0.00,,CLR,0.00,0.00,VWS V14.00,2013-03-26 02:25:00,
2013-03-25 21:30:00,12.6,9.5,30.47,ENE,71,7.0,7.0,87,0.00,,CLR,0.00,0.00,VWS V14.00,2013-03-26 02:30:00,
2013-03-25 21:35:00,12.3,9.4,30.47,ENE,71,3.0,7.0,88,0.00,,CLR,0.00,0.00,VWS V14.00,2013-03-26 02:35:00,
2013-03-25 21:40:00,12.1,9.2,30.47,ENE,71,3.0,7.0,88,0.00,,CLR,0.00,0.00,VWS V14.00,2013-03-26 02:40:00,
2013-03-25 21:45:00,12.0,9.1,30.47,ENE,71,4.0,7.0,88,0.00,,CLR,0.00,0.00,VWS V14.00,2013-03-26 02:45:00,
2013-03-25 21:51:00,11.9,9.3,30.47,ENE,78,7.0,8.0,89,0.00,,CLR,0.00,0.00,VWS V14.00,2013-03-26 02:51:00,
2013-03-25 21:56:00,12.1,9.5,30.48,ENE,78,4.0,8.0,89,0.00,,CLR,0.00,0.00,VWS V14.00,2013-03-26 02:56:00,
2013-03-25 22:02:00,11.8,8.9,30.48,ENE,78,4.0,7.0,88,0.00,,CLR,0.00,0.00,VWS V14.00,2013-03-26 03:02:00,
2013-03-25 22:07:00,11.6,9.0,30.48,ENE,78,5.0,7.0,89,0.00,,CLR,0.00,0.00,VWS V14.00,2013-03-26 03:07:00,
2013-03-25 22:12:00,11.6,9.0,30.48,East,86,6.0,9.0,89,0.00,,CLR,0.00,0.00,VWS V14.00,2013-03-26 03:12:00,
2013-03-25 22:17:00,11.3,8.7,30.48,East,88,6.0,9.0,89,0.00,,CLR,0.00,0.00,VWS V14.00,2013-03-26 03:17:00,
2013-03-25 22:22:00,11.1,8.5,30.48,East,88,6.0,9.0,89,0.00,,CLR,0.00,0.00,VWS V14.00,2013-03-26 03:22:00,
2013-03-25 22:27:00,10.8,8.2,30.48,East,88,6.0,9.0,89,0.00,,CLR,0.00,0.00,VWS V14.00,2013-03-26 03:27:00,
2013-03-25 22:32:00,10.6,8.0,30.48,East,88,5.0,6.0,89,0.00,,CLR,0.00,0.00,VWS V14.00,2013-03-26 03:32:00,
2013-03-25 22:37:00,10.5,7.9,30.48,East,88,6.0,6.0,89,0.00,,CLR,0.00,0.00,VWS V14.00,2013-03-26 03:37:00,
2013-03-25 22:42:00,10.5,7.9,30.48,East,88,5.0,6.0,89,0.00,,CLR,0.00,0.00,VWS V14.00,2013-03-26 03:42:00,
2013-03-25 22:47:00,10.4,8.1,30.48,East,88,5.0,6.0,90,0.00,,CLR,0.00,0.00,VWS V14.00,2013-03-26 03:47:00,
2013-03-25 22:52:00,10.4,8.1,30.48,East,88,2.0,6.0,90,0.00,,CLR,0.00,0.00,VWS V14.00,2013-03-26 03:52:00,
2013-03-25 22:58:00,10.4,8.1,30.48,East,88,7.0,7.0,90,0.00,,CLR,0.00,0.00,VWS V14.00,2013-03-26 03:58:00,
2013-03-25 23:01:00,10.3,8.0,30.48,East,88,7.0,7.0,90,0.00,,CLR,0.00,0.00,VWS V14.00,2013-03-26 04:01:00,
2013-03-25 23:02:00,10.3,8.0,30.48,East,88,5.0,7.0,90,0.00,,CLR,0.00,0.00,VWS V14.00,2013-03-26 04:02:00,
2013-03-25 23:07:00,10.2,7.9,30.48,East,92,7.0,8.0,90,0.00,,CLR,0.00,0.00,VWS V14.00,2013-03-26 04:07:00,
2013-03-25 23:08:00,10.2,7.9,30.48,East,93,7.0,8.0,90,0.00,,CLR,0.00,0.00,VWS V14.00,2013-03-26 04:08:00,
2013-03-25 23:09:00,10.2,7.9,30.48,East,94,6.0,8.0,90,0.00,,CLR,0.00,0.00,VWS V14.00,2013-03-26 04:09:00,
2013-03-25 23:14:00,10.2,7.9,30.47,East,94,6.0,8.0,90,0.00,,CLR,0.00,0.00,VWS V14.00,2013-03-26 04:14:00,
2013-03-25 23:19:00,10.2,7.9,30.47,East,94,6.0,8.0,90,0.00,,CLR,0.00,0.00,VWS V14.00,2013-03-26 04:19:00,
2013-03-25 23:24:00,10.1,7.8,30.47,East,95,7.0,8.0,90,0.00,,CLR,0.00,0.00,VWS V14.00,2013-03-26 04:24:00,
2013-03-25 23:29:00,10.1,7.8,30.47,East,96,7.0,7.0,90,0.00,,CLR,0.00,0.00,VWS V14.00,2013-03-26 04:29:00,
2013-03-25 23:34:00,10.1,7.8,30.47,East,98,6.0,8.0,90,0.00,,CLR,0.00,0.00,VWS V14.00,2013-03-26 04:34:00,
2013-03-25 23:39:00,10.1,7.8,30.47,East,98,7.0,8.0,90,0.00,,CLR,0.00,0.00,VWS V14.00,2013-03-26 04:39:00,
2013-03-25 23:44:00,10.1,7.8,30.47,East,98,6.0,8.0,90,0.00,,CLR,0.00,0.00,VWS V14.00,2013-03-26 04:44:00,
2013-03-25 23:49:00,9.9,7.3,30.47,East,98,7.0,8.0,89,0.00,,CLR,0.00,0.00,VWS V14.00,2013-03-26 04:49:00,
2013-03-25 23:55:00,9.9,7.3,30.47,East,98,7.0,8.0,89,0.00,,CLR,0.00,0.00,VWS V14.00,2013-03-26 04:55:00,